Hamedan, Iran
Current Conditions -  °F | °C
As of 6:53 PM on Thursday 30 Oct 2014 (Local Time) from OIHH Reporting Station
Scattered Clouds Scattered Clouds  
Wind Chill: 48°   Ceiling: Unl
Heat Index: 48°   Visibility: 6mi
Dew Point: 32°   Wind: 2mph
Humidity: 54%   Direction: 250°WSW
Pressure: 30.15"   Gusts: NA
Location:  34.8°N, 48.52°E
Report Text: OIHH 301553Z 25002KT 9999 FEW040 SCT190 09/00 Q1021
Loading
Personal Weather Stations






























Interactive Weather Map
Tropical Storm Tracking
New forecast layout! Learn more

10-Day Weather Forecast

Advertisements
Track Severe Weather on mobile